Terminal Aerodrome Forecast
Issued by NWS Cleveland, OH

Home | Current Version | Previous Version | Text Only | Print | Product List | Glossary On
Versions: 1 2 3 4 5 6 7 8 9 10 11 12 13 14 15 16 17 18
000
FTUS41 KCLE 020900 AAA
TAFERI
TAF AMD
KERI 020911Z 0209/0306 22011KT P6SM BKN025
     FM021500 25012KT 6SM -RA BR VCTS BKN025CB
      TEMPO 0215/0218 4SM SHRA BR BKN015
     FM021800 26014KT P6SM VCSH BKN015 OVC060
     FM022100 25011KT P6SM SCT045 BKN120
     FM030000 22006KT P6SM SCT045 BKN250
     FM030300 21004KT 6SM HZ BKN250=

USA.gov is the U.S. government's official web portal to all federal, state and local government web resources and services.